createdAt,value
2023-04-26T00:00:12.012Z,13.11
2023-04-26T00:01:14.842Z,13.08
2023-04-26T00:02:18.353Z,13.09
2023-04-26T00:03:20.803Z,13.09
2023-04-26T00:04:22.850Z,13.11
2023-04-26T00:05:26.011Z,13.06
2023-04-26T00:06:27.710Z,13.07
2023-04-26T00:07:30.703Z,13.10
2023-04-26T00:08:32.429Z,13.10
2023-04-26T00:09:34.150Z,13.06
2023-04-26T00:10:35.902Z,13.10
2023-04-26T00:11:37.635Z,13.11
2023-04-26T00:12:41.827Z,13.08
2023-04-26T00:13:43.599Z,13.13
2023-04-26T00:14:45.520Z,13.12
2023-04-26T00:15:47.201Z,13.09
2023-04-26T00:16:49.212Z,13.10
2023-04-26T00:17:51.255Z,13.13
2023-04-26T00:18:53.341Z,13.11
2023-04-26T00:19:57.615Z,13.02
2023-04-26T00:20:59.396Z,13.00
2023-04-26T00:22:01.289Z,12.99
2023-04-26T00:23:03.199Z,12.93
2023-04-26T00:24:06.978Z,12.91
2023-04-26T00:25:09.330Z,12.82
2023-04-26T00:26:11.200Z,12.87
2023-04-26T00:27:12.938Z,12.86
2023-04-26T00:28:14.735Z,12.82
2023-04-26T00:29:16.449Z,12.78
2023-04-26T00:30:18.247Z,12.77
2023-04-26T00:31:20.047Z,12.74
2023-04-26T00:32:21.788Z,12.74
2023-04-26T00:33:24.411Z,12.70
2023-04-26T00:34:32.522Z,12.66
2023-04-26T00:35:34.244Z,12.68
2023-04-26T00:36:35.991Z,12.61
2023-04-26T00:37:37.750Z,12.62
2023-04-26T00:38:39.457Z,12.63
2023-04-26T00:39:41.160Z,12.60
2023-04-26T00:40:42.836Z,12.62
2023-04-26T00:41:44.511Z,12.59
2023-04-26T00:42:46.253Z,12.59
2023-04-26T00:43:47.941Z,12.60
2023-04-26T00:44:50.454Z,12.60
2023-04-26T00:45:52.502Z,12.58
2023-04-26T00:46:54.704Z,12.58
2023-04-26T00:47:56.769Z,12.46
2023-04-26T00:48:58.689Z,12.46
2023-04-26T00:50:02.084Z,12.49
2023-04-26T00:51:05.750Z,12.47
2023-04-26T00:52:08.045Z,12.50
2023-04-26T00:53:10.789Z,12.52
2023-04-26T00:54:13.617Z,12.51
2023-04-26T00:55:16.781Z,12.47
2023-04-26T00:56:19.571Z,12.50
2023-04-26T00:57:22.447Z,12.48
2023-04-26T00:58:24.357Z,12.46
2023-04-26T00:59:27.135Z,12.47
2023-04-26T01:00:29.821Z,12.32
2023-04-26T01:01:31.566Z,12.52
2023-04-26T01:02:33.575Z,12.48
2023-04-26T01:03:35.773Z,12.51
2023-04-26T01:04:37.897Z,12.47
2023-04-26T01:05:39.646Z,12.53
2023-04-26T01:06:42.064Z,12.58
2023-04-26T01:07:44.268Z,12.64
2023-04-26T01:08:46.102Z,12.68
2023-04-26T01:09:49.218Z,12.67
2023-04-26T01:10:51.214Z,12.68
2023-04-26T01:11:53.615Z,12.74
2023-04-26T01:12:56.071Z,12.77
2023-04-26T01:13:58.421Z,12.77
2023-04-26T01:15:01.091Z,12.83
2023-04-26T01:16:03.328Z,12.83
2023-04-26T01:17:06.318Z,12.85
2023-04-26T01:18:08.509Z,12.87
2023-04-26T01:19:12.570Z,12.86
2023-04-26T01:20:14.938Z,12.88
2023-04-26T01:21:21.922Z,12.84
2023-04-26T01:22:23.656Z,12.82
2023-04-26T01:23:25.533Z,12.82
2023-04-26T01:24:27.319Z,12.81
2023-04-26T01:25:29.372Z,12.81
2023-04-26T01:26:32.188Z,12.80
2023-04-26T01:27:33.887Z,12.79
2023-04-26T01:28:35.843Z,12.77
2023-04-26T01:29:37.654Z,12.79
2023-04-26T01:30:39.393Z,12.78
2023-04-26T01:31:41.137Z,12.76
2023-04-26T01:32:42.888Z,12.60
2023-04-26T01:33:44.624Z,12.79
2023-04-26T01:34:46.708Z,12.80
2023-04-26T01:35:48.397Z,12.83
2023-04-26T01:36:50.134Z,12.85
2023-04-26T01:37:51.836Z,12.85
2023-04-26T01:38:53.749Z,12.88
2023-04-26T01:39:55.943Z,12.85
2023-04-26T01:40:57.648Z,12.84
2023-04-26T01:41:59.474Z,12.86
2023-04-26T01:43:03.305Z,12.80
2023-04-26T01:44:05.382Z,12.81
2023-04-26T01:45:07.572Z,12.87
2023-04-26T01:46:09.299Z,12.82
2023-04-26T01:47:11.008Z,12.78
2023-04-26T01:48:12.719Z,12.80
2023-04-26T01:49:14.445Z,12.82
2023-04-26T01:50:16.455Z,12.82
2023-04-26T01:51:18.205Z,12.78
2023-04-26T01:52:19.944Z,12.82
2023-04-26T01:53:21.833Z,12.82
2023-04-26T01:54:23.539Z,12.85
2023-04-26T01:55:25.240Z,12.87
2023-04-26T01:56:27.051Z,12.87
2023-04-26T01:57:28.797Z,12.84
2023-04-26T01:58:30.552Z,12.83
2023-04-26T01:59:32.338Z,12.79
2023-04-26T02:00:34.044Z,12.75
2023-04-26T02:01:35.851Z,12.81
2023-04-26T02:02:37.776Z,12.80
2023-04-26T02:03:39.790Z,12.72
2023-04-26T02:04:41.555Z,12.79
2023-04-26T02:05:43.299Z,12.77
2023-04-26T02:06:45.198Z,12.77
2023-04-26T02:07:47.008Z,12.73
2023-04-26T02:08:49.548Z,12.70
2023-04-26T02:09:51.669Z,12.69
2023-04-26T02:10:53.416Z,12.67
2023-04-26T02:11:55.136Z,12.62
2023-04-26T02:12:56.883Z,12.58
2023-04-26T02:13:58.710Z,12.57
2023-04-26T02:15:00.413Z,12.52
2023-04-26T02:16:02.263Z,12.47
2023-04-26T02:17:04.947Z,12.44
2023-04-26T02:18:07.237Z,12.39
2023-04-26T02:19:11.096Z,12.37
2023-04-26T02:20:13.050Z,12.34
2023-04-26T02:21:18.441Z,12.29
2023-04-26T02:22:21.350Z,12.27
2023-04-26T02:23:24.359Z,12.19
2023-04-26T02:24:26.274Z,12.16
2023-04-26T02:25:27.982Z,12.18
2023-04-26T02:26:29.724Z,12.18
2023-04-26T02:27:31.875Z,12.14
2023-04-26T02:28:33.569Z,12.15
2023-04-26T02:29:43.772Z,12.15
2023-04-26T02:30:46.454Z,12.12
2023-04-26T02:31:48.876Z,12.12
2023-04-26T02:32:51.058Z,12.12
2023-04-26T02:33:52.774Z,12.15
2023-04-26T02:34:54.529Z,12.15
2023-04-26T02:35:56.234Z,12.15
2023-04-26T02:36:57.924Z,12.18
2023-04-26T02:37:59.622Z,12.22
2023-04-26T02:39:01.751Z,12.22
2023-04-26T02:40:05.607Z,12.28
2023-04-26T02:41:07.298Z,12.29
2023-04-26T02:42:10.711Z,12.31
2023-04-26T02:43:12.454Z,12.31
2023-04-26T02:44:14.154Z,12.33
2023-04-26T02:45:16.055Z,12.35
2023-04-26T02:46:18.134Z,12.37
2023-04-26T02:47:19.952Z,12.38
2023-04-26T02:48:21.730Z,12.41
2023-04-26T02:49:23.586Z,12.41
2023-04-26T02:50:25.321Z,12.41
2023-04-26T02:51:27.221Z,12.38
2023-04-26T02:52:28.910Z,12.41
2023-04-26T02:53:30.863Z,12.40
2023-04-26T02:54:32.594Z,12.42
2023-04-26T02:55:34.298Z,12.41
2023-04-26T02:56:36.053Z,12.42
2023-04-26T02:57:37.736Z,12.40
2023-04-26T02:58:39.466Z,12.41
2023-04-26T02:59:41.468Z,12.40
2023-04-26T03:00:47.973Z,12.37
2023-04-26T03:01:49.897Z,12.36
2023-04-26T03:02:52.226Z,12.36
2023-04-26T03:03:54.901Z,12.34
2023-04-26T03:04:56.703Z,12.32
2023-04-26T03:05:58.625Z,12.32
2023-04-26T03:07:00.541Z,12.32
2023-04-26T03:08:02.230Z,12.30
2023-04-26T03:09:05.712Z,12.32
2023-04-26T03:10:09.912Z,12.31
2023-04-26T03:11:12.053Z,12.23
2023-04-26T03:12:13.798Z,12.28
2023-04-26T03:13:15.614Z,12.23
2023-04-26T03:14:18.056Z,12.23
2023-04-26T03:15:19.801Z,12.24
2023-04-26T03:16:23.926Z,12.23
2023-04-26T03:17:26.079Z,12.21
2023-04-26T03:18:27.842Z,12.23
2023-04-26T03:19:29.618Z,12.23
2023-04-26T03:20:32.097Z,12.22
2023-04-26T03:21:34.019Z,12.18
2023-04-26T03:22:35.966Z,12.22
2023-04-26T03:23:37.677Z,12.17
2023-04-26T03:24:39.363Z,12.16
2023-04-26T03:25:41.236Z,12.16
2023-04-26T03:26:43.600Z,12.14
2023-04-26T03:27:45.328Z,12.06
2023-04-26T03:28:47.050Z,12.13
2023-04-26T03:29:48.747Z,12.10
2023-04-26T03:30:50.533Z,12.13
2023-04-26T03:31:52.439Z,12.12
2023-04-26T03:32:54.890Z,12.15
2023-04-26T03:33:56.637Z,12.16
2023-04-26T03:34:58.763Z,12.17
2023-04-26T03:36:00.548Z,12.15
2023-04-26T03:37:03.417Z,12.16
2023-04-26T03:38:05.129Z,12.12
2023-04-26T03:39:06.954Z,12.15
2023-04-26T03:40:09.631Z,12.15
2023-04-26T03:41:11.332Z,12.13
2023-04-26T03:42:13.066Z,12.11
2023-04-26T03:43:14.882Z,12.12
2023-04-26T03:44:16.649Z,12.09
2023-04-26T03:45:18.742Z,12.10
2023-04-26T03:46:20.644Z,12.09
2023-04-26T03:47:22.413Z,12.09
2023-04-26T03:48:24.162Z,12.07
2023-04-26T03:49:25.859Z,12.06
2023-04-26T03:50:27.576Z,12.04
2023-04-26T03:51:29.375Z,11.99
2023-04-26T03:52:31.102Z,11.98
2023-04-26T03:53:32.987Z,12.02
2023-04-26T03:54:35.097Z,12.02
2023-04-26T03:55:36.987Z,11.97
2023-04-26T03:56:40.096Z,11.98
2023-04-26T03:57:41.778Z,11.97
2023-04-26T03:58:43.484Z,11.97
2023-04-26T03:59:45.230Z,11.96
2023-04-26T04:00:48.680Z,11.98
2023-04-26T04:01:50.466Z,11.96
2023-04-26T04:02:52.329Z,11.96
2023-04-26T04:03:54.493Z,11.98
2023-04-26T04:04:57.351Z,11.96
2023-04-26T04:05:59.240Z,12.02
2023-04-26T04:07:01.080Z,11.99
2023-04-26T04:08:03.168Z,12.00
2023-04-26T04:09:06.071Z,11.87
2023-04-26T04:10:08.205Z,12.07
2023-04-26T04:11:09.942Z,12.11
2023-04-26T04:12:11.693Z,12.15
2023-04-26T04:13:13.400Z,12.19
2023-04-26T04:14:15.157Z,12.22
2023-04-26T04:15:18.959Z,12.28
2023-04-26T04:16:20.754Z,12.31
2023-04-26T04:17:22.801Z,12.35
2023-04-26T04:18:24.567Z,12.38
2023-04-26T04:19:26.334Z,12.39
2023-04-26T04:20:28.055Z,12.41
2023-04-26T04:21:29.826Z,12.48
2023-04-26T04:22:31.529Z,12.45
2023-04-26T04:23:33.267Z,12.57
2023-04-26T04:24:34.936Z,12.61
2023-04-26T04:25:36.834Z,12.63
2023-04-26T04:26:39.270Z,12.69
2023-04-26T04:27:45.312Z,12.66
2023-04-26T04:28:47.451Z,12.72
2023-04-26T04:29:49.214Z,12.76
2023-04-26T04:30:51.024Z,12.81
2023-04-26T04:31:52.781Z,12.84
2023-04-26T04:32:54.564Z,12.92
2023-04-26T04:33:56.287Z,12.95
2023-04-26T04:34:58.909Z,13.02
2023-04-26T04:36:00.656Z,13.07
2023-04-26T04:37:02.396Z,13.14
2023-04-26T04:38:04.425Z,13.22
2023-04-26T04:39:12.400Z,13.36
2023-04-26T04:40:14.286Z,13.50
2023-04-26T04:41:16.958Z,13.71
2023-04-26T04:42:19.073Z,13.96
2023-04-26T04:43:21.604Z,14.15
2023-04-26T04:44:24.385Z,14.25
2023-04-26T04:45:26.102Z,14.34
2023-04-26T04:46:27.911Z,14.35
2023-04-26T04:47:29.690Z,14.49
2023-04-26T04:48:31.451Z,14.60
2023-04-26T04:49:33.151Z,14.76
2023-04-26T04:50:36.051Z,14.88
2023-04-26T04:51:37.914Z,15.05
2023-04-26T04:52:39.608Z,15.21
2023-04-26T04:53:41.321Z,15.41
2023-04-26T04:54:43.100Z,15.55
2023-04-26T04:55:45.042Z,15.65
2023-04-26T04:56:46.932Z,15.75
2023-04-26T04:57:48.674Z,15.86
2023-04-26T04:58:50.680Z,16.00
2023-04-26T04:59:52.554Z,16.17
2023-04-26T05:00:55.724Z,16.34
2023-04-26T05:01:57.510Z,16.57
2023-04-26T05:02:59.341Z,16.75
2023-04-26T05:04:01.864Z,16.95
2023-04-26T05:05:05.290Z,17.10
2023-04-26T05:06:08.187Z,17.08
2023-04-26T05:07:09.958Z,17.07
2023-04-26T05:08:11.759Z,17.10
2023-04-26T05:09:13.651Z,17.16
2023-04-26T05:10:15.789Z,17.13
2023-04-26T05:11:17.510Z,17.14
2023-04-26T05:12:19.192Z,17.09
2023-04-26T05:13:20.874Z,17.06
2023-04-26T05:14:22.637Z,17.01
2023-04-26T05:15:24.364Z,17.02
2023-04-26T05:16:26.288Z,17.00
2023-04-26T05:17:28.046Z,16.99
2023-04-26T05:18:29.770Z,16.98
2023-04-26T05:19:32.110Z,16.98
2023-04-26T05:20:34.311Z,17.00
2023-04-26T05:21:36.108Z,17.00
2023-04-26T05:22:39.790Z,16.96
2023-04-26T05:23:41.845Z,16.91
2023-04-26T05:24:43.783Z,16.95
2023-04-26T05:25:45.610Z,17.03
2023-04-26T05:26:47.429Z,17.09
2023-04-26T05:27:49.255Z,17.13
2023-04-26T05:28:51.191Z,17.12
2023-04-26T05:29:52.869Z,17.10
2023-04-26T05:30:54.550Z,17.18
2023-04-26T05:31:56.863Z,17.24
2023-04-26T05:32:58.736Z,17.36
2023-04-26T05:34:00.561Z,17.57
2023-04-26T05:35:02.797Z,17.75
2023-04-26T05:36:04.884Z,17.99
2023-04-26T05:37:06.965Z,18.09
2023-04-26T05:38:09.186Z,18.19
2023-04-26T05:39:12.506Z,18.23
2023-04-26T05:40:14.300Z,18.21
2023-04-26T05:41:16.149Z,18.17
2023-04-26T05:42:18.185Z,18.16
2023-04-26T05:43:20.063Z,18.13
2023-04-26T05:44:21.824Z,18.08
2023-04-26T05:45:23.746Z,18.08
2023-04-26T05:46:25.570Z,18.08
2023-04-26T05:47:27.462Z,18.06
2023-04-26T05:48:30.013Z,18.00
2023-04-26T05:49:31.771Z,17.96
2023-04-26T05:50:33.473Z,17.93
2023-04-26T05:51:35.229Z,17.94
2023-04-26T05:52:36.954Z,17.97
2023-04-26T05:53:38.742Z,17.96
2023-04-26T05:54:40.614Z,17.95
2023-04-26T05:55:43.086Z,17.98
2023-04-26T05:56:45.294Z,18.07
2023-04-26T05:57:47.146Z,18.14
2023-04-26T05:58:49.035Z,18.15
2023-04-26T05:59:50.830Z,18.58
2023-04-26T06:00:52.691Z,18.79
2023-04-26T06:01:54.381Z,18.88
2023-04-26T06:02:56.292Z,19.02
2023-04-26T06:04:00.866Z,19.09
2023-04-26T06:05:03.595Z,19.35
2023-04-26T06:06:05.810Z,19.52
2023-04-26T06:07:07.528Z,19.68
2023-04-26T06:08:10.587Z,19.84
2023-04-26T06:09:12.349Z,20.20
2023-04-26T06:10:14.084Z,20.44
2023-04-26T06:11:16.348Z,20.46
2023-04-26T06:12:18.080Z,20.63
2023-04-26T06:13:19.815Z,20.82
2023-04-26T06:14:30.000Z,20.95
2023-04-26T06:15:32.308Z,20.97
2023-04-26T06:16:34.121Z,20.97
2023-04-26T06:17:35.914Z,20.98
2023-04-26T06:18:37.644Z,21.04
2023-04-26T06:19:39.338Z,21.22
2023-04-26T06:20:41.214Z,21.36
2023-04-26T06:21:42.962Z,21.48
2023-04-26T06:22:44.660Z,21.73
2023-04-26T06:23:46.902Z,21.84
2023-04-26T06:24:48.711Z,22.11
2023-04-26T06:25:50.486Z,22.45
2023-04-26T06:26:52.789Z,22.68
2023-04-26T06:27:54.845Z,23.02
2023-04-26T06:28:56.550Z,23.28
2023-04-26T06:29:58.272Z,23.61
2023-04-26T06:31:00.005Z,23.88
2023-04-26T06:32:01.779Z,24.05
2023-04-26T06:33:03.586Z,24.06
2023-04-26T06:34:05.349Z,24.23
2023-04-26T06:35:07.578Z,24.26
2023-04-26T06:36:12.965Z,24.12
2023-04-26T06:37:14.849Z,23.99
2023-04-26T06:38:16.590Z,23.99
2023-04-26T06:39:18.352Z,23.89
2023-04-26T06:40:20.173Z,23.76
2023-04-26T06:41:22.580Z,23.54
2023-04-26T06:42:24.322Z,23.12
2023-04-26T06:43:26.255Z,22.95
2023-04-26T06:44:27.970Z,22.71
2023-04-26T06:45:30.036Z,22.60
2023-04-26T06:46:31.781Z,22.42
2023-04-26T06:47:33.548Z,22.21
2023-04-26T06:48:35.754Z,22.28
2023-04-26T06:49:37.564Z,22.22
2023-04-26T06:50:40.259Z,22.23
2023-04-26T06:51:41.980Z,22.28
2023-04-26T06:52:43.693Z,22.26
2023-04-26T06:53:45.432Z,22.10
2023-04-26T06:54:56.505Z,21.98
2023-04-26T06:55:59.470Z,22.01
2023-04-26T06:57:01.622Z,22.05
2023-04-26T06:58:03.528Z,22.04
2023-04-26T06:59:06.969Z,22.20
2023-04-26T07:00:09.836Z,22.44
2023-04-26T07:01:11.560Z,22.51
2023-04-26T07:02:15.185Z,22.65
2023-04-26T07:03:17.743Z,22.73
2023-04-26T07:04:20.883Z,22.86
2023-04-26T07:05:23.289Z,22.92
2023-04-26T07:06:26.517Z,22.94
2023-04-26T07:07:28.382Z,22.89
2023-04-26T07:08:30.223Z,22.80
2023-04-26T07:09:31.960Z,22.82
2023-04-26T07:10:34.334Z,22.83
2023-04-26T07:11:36.165Z,22.95
2023-04-26T07:12:38.013Z,23.07
2023-04-26T07:13:42.548Z,23.26
2023-04-26T07:14:44.394Z,23.73
2023-04-26T07:15:46.099Z,24.00
2023-04-26T07:16:47.857Z,24.22
2023-04-26T07:17:49.635Z,24.44
2023-04-26T07:18:58.544Z,24.70
2023-04-26T07:20:00.432Z,24.71
2023-04-26T07:21:02.336Z,24.86
2023-04-26T07:22:04.877Z,24.83
2023-04-26T07:23:06.817Z,24.91
2023-04-26T07:24:08.775Z,25.03
2023-04-26T07:25:10.500Z,25.01
2023-04-26T07:26:12.263Z,24.82
2023-04-26T07:27:17.006Z,24.77
2023-04-26T07:28:18.739Z,24.61
2023-04-26T07:29:20.677Z,24.58
2023-04-26T07:30:22.541Z,24.55
2023-04-26T07:31:24.235Z,24.50
2023-04-26T07:32:26.011Z,24.50
2023-04-26T07:33:28.122Z,24.38
2023-04-26T07:34:29.917Z,24.22
2023-04-26T07:35:31.859Z,24.08
2023-04-26T07:36:33.619Z,23.87
2023-04-26T07:37:35.870Z,23.68
2023-04-26T07:38:39.356Z,23.60
2023-04-26T07:39:41.317Z,23.41
2023-04-26T07:40:43.551Z,23.21
2023-04-26T07:41:45.501Z,23.09
2023-04-26T07:42:47.190Z,22.99
2023-04-26T07:43:48.922Z,22.99
2023-04-26T07:44:50.682Z,23.02
2023-04-26T07:45:52.670Z,23.10
2023-04-26T07:46:54.637Z,23.29
2023-04-26T07:47:56.560Z,23.43
2023-04-26T07:48:58.264Z,23.67
2023-04-26T07:49:59.952Z,24.01
2023-04-26T07:51:09.179Z,24.16
2023-04-26T07:52:11.103Z,24.30
2023-04-26T07:53:12.998Z,24.63
2023-04-26T07:54:14.696Z,24.88
2023-04-26T07:55:17.674Z,24.97
2023-04-26T07:56:19.698Z,24.96
2023-04-26T07:57:21.429Z,25.13
2023-04-26T07:58:23.140Z,25.19
2023-04-26T07:59:24.946Z,25.32
2023-04-26T08:00:26.885Z,25.44
2023-04-26T08:01:29.233Z,25.59
2023-04-26T08:02:43.617Z,25.60
2023-04-26T08:03:47.880Z,25.55
2023-04-26T08:04:52.755Z,25.35
2023-04-26T08:05:55.369Z,25.26
2023-04-26T08:06:57.216Z,25.18
2023-04-26T08:07:59.031Z,25.13
2023-04-26T08:09:03.369Z,24.91
2023-04-26T08:10:05.690Z,24.59
2023-04-26T08:11:10.886Z,24.19
2023-04-26T08:12:12.826Z,23.92
2023-04-26T08:13:14.799Z,23.66
2023-04-26T08:14:16.803Z,23.42
2023-04-26T08:15:18.628Z,23.24
2023-04-26T08:16:20.343Z,23.10
2023-04-26T08:17:22.268Z,22.98
2023-04-26T08:18:24.009Z,22.92
2023-04-26T08:19:26.916Z,22.86
2023-04-26T08:20:28.624Z,22.72
2023-04-26T08:21:31.177Z,22.64
2023-04-26T08:22:32.866Z,22.44
2023-04-26T08:23:36.649Z,22.42
2023-04-26T08:24:38.393Z,22.31
2023-04-26T08:25:40.135Z,22.21
2023-04-26T08:26:41.876Z,21.94
2023-04-26T08:27:45.003Z,21.76
2023-04-26T08:28:46.759Z,21.54
2023-04-26T08:29:48.943Z,21.47
2023-04-26T08:30:50.780Z,21.42
2023-04-26T08:31:52.622Z,21.36
2023-04-26T08:32:54.414Z,21.43
2023-04-26T08:33:56.228Z,21.46
2023-04-26T08:34:58.014Z,21.47
2023-04-26T08:36:01.874Z,21.43
2023-04-26T08:37:03.590Z,21.36
2023-04-26T08:38:05.330Z,21.37
2023-04-26T08:39:07.983Z,21.42
2023-04-26T08:40:13.002Z,21.36
2023-04-26T08:41:17.950Z,21.36
2023-04-26T08:42:24.590Z,21.36
2023-04-26T08:43:28.010Z,21.36
2023-04-26T08:44:35.200Z,21.40
2023-04-26T08:45:41.010Z,21.44
2023-04-26T08:47:04.086Z,21.50
2023-04-26T08:48:11.928Z,21.41
2023-04-26T08:49:25.571Z,21.45
2023-04-26T08:50:30.116Z,21.46
2023-04-26T08:51:33.432Z,21.50
2023-04-26T08:52:35.664Z,21.56
2023-04-26T08:53:38.534Z,21.54
2023-04-26T08:54:41.576Z,21.64
2023-04-26T08:55:50.293Z,21.62
2023-04-26T08:56:52.579Z,21.63
2023-04-26T08:57:55.136Z,21.73
2023-04-26T08:58:57.083Z,21.83
2023-04-26T08:59:58.909Z,21.87
2023-04-26T09:01:03.586Z,21.95
2023-04-26T09:02:07.125Z,22.04
2023-04-26T09:03:09.716Z,22.15
2023-04-26T09:04:12.518Z,22.23
2023-04-26T09:05:14.787Z,22.24
2023-04-26T09:06:17.400Z,22.26
2023-04-26T09:07:22.272Z,22.29
2023-04-26T09:08:24.148Z,22.28
2023-04-26T09:09:29.487Z,22.29
2023-04-26T09:10:32.570Z,22.11
2023-04-26T09:12:00.490Z,22.03
2023-04-26T09:13:02.192Z,22.00
2023-04-26T09:14:03.890Z,22.00
2023-04-26T09:15:10.669Z,21.88
2023-04-26T09:16:12.436Z,21.80
2023-04-26T09:17:27.668Z,21.74
2023-04-26T09:18:31.387Z,21.74
2023-04-26T09:19:40.408Z,21.74
2023-04-26T09:20:42.186Z,21.67
2023-04-26T09:21:47.345Z,21.70
2023-04-26T09:22:53.423Z,21.77
2023-04-26T09:24:00.043Z,21.79
2023-04-26T09:25:07.334Z,21.84
2023-04-26T09:26:17.267Z,21.75
2023-04-26T09:27:19.726Z,21.71
2023-04-26T09:28:23.318Z,21.82
2023-04-26T09:29:25.072Z,21.90
2023-04-26T09:30:27.975Z,21.97
2023-04-26T09:31:39.072Z,22.04
2023-04-26T09:32:51.990Z,21.99
2023-04-26T09:34:00.740Z,21.98
2023-04-26T09:35:02.524Z,21.93
2023-04-26T09:36:13.583Z,21.92
2023-04-26T09:37:15.218Z,21.94
2023-04-26T09:38:18.326Z,21.90
2023-04-26T09:39:49.519Z,21.96
2023-04-26T09:40:51.535Z,21.91
2023-04-26T09:41:53.378Z,21.88
2023-04-26T09:43:07.191Z,21.87
2023-04-26T09:44:21.878Z,21.92
2023-04-26T09:45:24.273Z,21.86
2023-04-26T09:46:26.249Z,21.78
2023-04-26T09:47:28.028Z,21.74
2023-04-26T09:48:32.966Z,21.71
2023-04-26T09:49:44.657Z,21.64
2023-04-26T09:50:46.830Z,21.59
2023-04-26T09:52:21.093Z,21.50
2023-04-26T09:53:45.407Z,21.50
2023-04-26T09:54:49.686Z,21.35
2023-04-26T09:55:51.519Z,21.25
2023-04-26T09:57:01.259Z,21.03
2023-04-26T09:58:10.870Z,20.89
2023-04-26T09:59:12.677Z,20.84
2023-04-26T10:00:15.441Z,20.76
2023-04-26T10:01:19.357Z,20.52
2023-04-26T10:02:23.845Z,20.52
2023-04-26T10:03:27.012Z,20.44
2023-04-26T10:04:28.956Z,20.44
2023-04-26T10:05:33.943Z,20.48
2023-04-26T10:06:36.159Z,20.47
2023-04-26T10:07:37.964Z,20.42
2023-04-26T10:08:39.826Z,20.34
2023-04-26T10:09:42.199Z,20.32
2023-04-26T10:10:44.256Z,20.31
2023-04-26T10:11:46.359Z,20.21
2023-04-26T10:12:48.372Z,20.18
2023-04-26T10:13:51.305Z,20.12
2023-04-26T10:14:53.158Z,20.06
2023-04-26T10:15:56.710Z,20.07
2023-04-26T10:16:58.726Z,20.03
2023-04-26T10:18:00.730Z,19.97
2023-04-26T10:19:02.745Z,19.86
2023-04-26T10:20:10.808Z,19.87
2023-04-26T10:21:21.565Z,19.92
2023-04-26T10:22:30.704Z,19.89
2023-04-26T10:23:33.409Z,19.86
2023-04-26T10:24:38.308Z,19.84
2023-04-26T10:25:42.500Z,19.82
2023-04-26T10:26:55.081Z,19.66
2023-04-26T10:27:57.013Z,19.55
2023-04-26T10:29:02.663Z,19.54
2023-04-26T10:30:07.906Z,19.41
2023-04-26T10:31:09.768Z,19.43
2023-04-26T10:32:16.663Z,19.39
2023-04-26T10:33:19.196Z,19.33
2023-04-26T10:34:21.893Z,19.11
2023-04-26T10:35:33.511Z,19.13
2023-04-26T10:37:11.521Z,19.10
2023-04-26T10:38:13.296Z,19.11
2023-04-26T10:39:23.479Z,19.09
2023-04-26T10:40:29.505Z,19.08
2023-04-26T10:41:33.968Z,19.08
2023-04-26T10:42:35.925Z,19.12
2023-04-26T10:43:42.956Z,19.15
2023-04-26T10:44:45.890Z,19.20
2023-04-26T10:45:48.960Z,19.24
2023-04-26T10:46:52.769Z,19.28
2023-04-26T10:48:20.517Z,19.36
2023-04-26T10:49:26.310Z,19.33
2023-04-26T10:50:28.274Z,19.26
2023-04-26T10:51:30.139Z,19.11
2023-04-26T10:53:02.033Z,19.06
2023-04-26T10:54:04.357Z,19.13
2023-04-26T10:55:07.028Z,19.15
2023-04-26T10:56:08.730Z,19.16
2023-04-26T10:57:10.464Z,19.19
2023-04-26T10:58:30.392Z,19.22
2023-04-26T10:59:43.401Z,19.22
2023-04-26T11:01:11.831Z,19.36
2023-04-26T11:02:13.924Z,19.48
2023-04-26T11:03:15.844Z,19.54
2023-04-26T11:04:17.813Z,19.59
2023-04-26T11:05:54.324Z,19.65
2023-04-26T11:06:58.088Z,19.59
2023-04-26T11:08:10.069Z,19.62
2023-04-26T11:09:37.926Z,19.53
2023-04-26T11:10:39.837Z,19.45
2023-04-26T11:11:53.567Z,19.33
2023-04-26T11:13:03.486Z,19.37
2023-04-26T11:14:06.011Z,19.33
2023-04-26T11:15:08.463Z,19.47
2023-04-26T11:16:12.365Z,19.49
2023-04-26T11:17:14.482Z,19.58
2023-04-26T11:18:19.955Z,19.65
2023-04-26T11:19:21.672Z,19.71
2023-04-26T11:20:28.442Z,19.78
2023-04-26T11:21:30.221Z,19.79
2023-04-26T11:22:32.025Z,19.80
2023-04-26T11:23:33.871Z,19.71
2023-04-26T11:24:45.010Z,19.66
2023-04-26T11:25:46.683Z,19.59
2023-04-26T11:26:54.411Z,19.47
2023-04-26T11:28:03.345Z,19.33
2023-04-26T11:29:09.438Z,19.30
2023-04-26T11:30:11.914Z,19.34
2023-04-26T11:31:14.682Z,19.37
2023-04-26T11:32:16.602Z,19.36
2023-04-26T11:33:22.385Z,19.37
2023-04-26T11:34:31.771Z,19.36
2023-04-26T11:35:39.155Z,19.29
2023-04-26T11:36:40.968Z,19.38
2023-04-26T11:37:42.855Z,19.38
2023-04-26T11:38:44.612Z,19.35
2023-04-26T11:39:46.555Z,19.37
2023-04-26T11:41:01.674Z,19.36
2023-04-26T11:42:11.620Z,19.34
2023-04-26T11:43:13.941Z,19.32
2023-04-26T11:44:20.143Z,19.36
2023-04-26T11:45:21.905Z,19.41
2023-04-26T11:46:24.546Z,19.44
2023-04-26T11:47:33.388Z,19.44
2023-04-26T11:48:37.004Z,19.38
2023-04-26T11:49:39.276Z,19.37
2023-04-26T11:50:41.997Z,19.28
2023-04-26T11:51:48.140Z,19.28
2023-04-26T11:52:50.135Z,19.24
2023-04-26T11:53:52.582Z,19.20
2023-04-26T11:55:07.671Z,19.25
2023-04-26T11:56:20.021Z,19.25
2023-04-26T11:57:21.921Z,19.19
2023-04-26T11:58:23.732Z,19.18
2023-04-26T11:59:32.328Z,19.19
2023-04-26T12:00:34.130Z,19.25
2023-04-26T12:01:35.843Z,19.27
2023-04-26T12:02:37.816Z,19.30
2023-04-26T12:03:39.947Z,19.28
2023-04-26T12:04:42.238Z,19.31
2023-04-26T12:05:55.036Z,19.33
2023-04-26T12:06:57.963Z,19.33
2023-04-26T12:08:00.797Z,19.33
2023-04-26T12:09:05.976Z,19.35
2023-04-26T12:10:18.046Z,19.38
2023-04-26T12:11:20.210Z,19.45
2023-04-26T12:12:24.450Z,19.55
2023-04-26T12:13:26.193Z,19.61
2023-04-26T12:14:35.287Z,19.60
2023-04-26T12:15:37.092Z,19.69
2023-04-26T12:16:39.045Z,19.76
2023-04-26T12:17:41.005Z,19.66
2023-04-26T12:18:50.918Z,19.56
2023-04-26T12:19:56.153Z,19.41
2023-04-26T12:20:59.575Z,19.38
2023-04-26T12:22:01.292Z,19.35
2023-04-26T12:23:06.100Z,19.39
2023-04-26T12:24:08.111Z,19.35
2023-04-26T12:25:10.396Z,19.38
2023-04-26T12:26:12.254Z,19.38
2023-04-26T12:27:21.071Z,19.44
2023-04-26T12:28:24.029Z,19.50
2023-04-26T12:29:25.782Z,19.48
2023-04-26T12:30:28.965Z,19.47
2023-04-26T12:31:30.781Z,19.33
2023-04-26T12:32:32.609Z,19.34
2023-04-26T12:33:34.978Z,19.33
2023-04-26T12:34:36.703Z,19.39
2023-04-26T12:35:38.519Z,19.34
2023-04-26T12:36:46.556Z,19.29
2023-04-26T12:37:49.964Z,19.27
2023-04-26T12:38:52.198Z,19.30
2023-04-26T12:39:53.939Z,19.29
2023-04-26T12:40:56.026Z,19.20
2023-04-26T12:41:57.781Z,19.17
2023-04-26T12:42:59.616Z,19.19
2023-04-26T12:44:01.856Z,19.22
2023-04-26T12:45:06.905Z,19.24
2023-04-26T12:46:08.714Z,19.20
2023-04-26T12:47:10.996Z,19.20
2023-04-26T12:48:12.959Z,19.16
2023-04-26T12:49:14.860Z,19.08
2023-04-26T12:50:18.624Z,19.00
2023-04-26T12:51:20.547Z,19.11
2023-04-26T12:52:22.292Z,19.12
2023-04-26T12:53:24.065Z,19.11
2023-04-26T12:54:25.833Z,19.02
2023-04-26T12:55:28.550Z,19.03
2023-04-26T12:56:31.285Z,19.02
2023-04-26T12:57:33.059Z,19.00
2023-04-26T12:58:34.759Z,18.92
2023-04-26T12:59:36.548Z,18.81
2023-04-26T13:00:38.233Z,18.77
2023-04-26T13:01:40.048Z,18.75
2023-04-26T13:02:42.320Z,18.73
2023-04-26T13:03:44.508Z,18.76
2023-04-26T13:04:49.235Z,18.81
2023-04-26T13:05:51.836Z,18.82
2023-04-26T13:06:53.632Z,18.67
2023-04-26T13:07:55.613Z,18.60
2023-04-26T13:08:57.381Z,18.60
2023-04-26T13:10:03.551Z,18.57
2023-04-26T13:11:05.314Z,18.55
2023-04-26T13:12:07.248Z,18.48
2023-04-26T13:13:08.921Z,18.38
2023-04-26T13:14:10.791Z,18.35
2023-04-26T13:15:12.749Z,18.35
2023-04-26T13:16:14.543Z,18.34
2023-04-26T13:17:16.667Z,18.36
2023-04-26T13:18:18.659Z,18.30
2023-04-26T13:19:20.422Z,18.17
2023-04-26T13:20:23.712Z,18.19
2023-04-26T13:21:27.480Z,18.10
2023-04-26T13:22:29.275Z,18.03
2023-04-26T13:23:30.957Z,17.88
2023-04-26T13:24:32.678Z,17.79
2023-04-26T13:25:34.410Z,17.74
2023-04-26T13:26:36.110Z,17.82
2023-04-26T13:27:37.814Z,17.81
2023-04-26T13:28:39.576Z,17.74
2023-04-26T13:29:42.005Z,17.73
2023-04-26T13:30:43.704Z,17.70
2023-04-26T13:31:45.677Z,17.58
2023-04-26T13:32:47.532Z,17.48
2023-04-26T13:33:49.893Z,17.43
2023-04-26T13:34:51.988Z,17.34